createdAt,value
2019-02-26T00:01:33.197Z,17.77
2019-02-26T00:04:02.581Z,18.50
2019-02-26T00:06:32.070Z,18.50
2019-02-26T00:09:03.684Z,18.43
2019-02-26T00:11:33.395Z,18.80
2019-02-26T00:14:03.521Z,18.53
2019-02-26T00:16:35.552Z,19.33
2019-02-26T00:19:05.070Z,17.77
2019-02-26T00:21:36.827Z,19.13
2019-02-26T00:24:07.340Z,19.03
2019-02-26T00:26:38.573Z,18.03
2019-02-26T00:29:08.545Z,18.37
2019-02-26T00:31:37.791Z,18.17
2019-02-26T00:34:08.392Z,18.37
2019-02-26T00:36:38.232Z,19.43
2019-02-26T00:39:07.925Z,18.33
2019-02-26T00:41:37.177Z,18.50
2019-02-26T00:44:06.606Z,18.90
2019-02-26T00:46:37.037Z,18.87
2019-02-26T00:49:07.715Z,18.53
2019-02-26T00:51:39.007Z,19.40
2019-02-26T00:54:08.171Z,18.17
2019-02-26T00:56:38.725Z,18.30
2019-02-26T00:59:08.519Z,19.33
2019-02-26T01:01:38.245Z,17.97
2019-02-26T01:04:07.635Z,18.60
2019-02-26T01:06:36.998Z,19.03
2019-02-26T01:09:09.482Z,17.70
2019-02-26T01:11:39.074Z,18.57
2019-02-26T01:14:08.419Z,18.70
2019-02-26T01:16:39.294Z,18.27
2019-02-26T01:19:10.769Z,19.07
2019-02-26T01:21:39.699Z,19.23
2019-02-26T01:24:09.034Z,18.80
2019-02-26T01:26:38.235Z,17.83
2019-02-26T01:29:07.484Z,17.70
2019-02-26T01:31:36.641Z,19.00
2019-02-26T01:34:05.891Z,19.60
2019-02-26T01:36:35.053Z,18.03
2019-02-26T01:39:09.275Z,18.80
2019-02-26T01:41:41.343Z,18.47
2019-02-26T01:44:08.929Z,18.87
2019-02-26T01:46:38.985Z,17.77
2019-02-26T01:49:09.020Z,18.97
2019-02-26T01:51:38.205Z,18.00
2019-02-26T01:54:08.220Z,19.63
2019-02-26T01:56:38.399Z,18.40
2019-02-26T01:59:07.671Z,18.43
2019-02-26T02:01:40.009Z,19.10
2019-02-26T02:04:08.759Z,18.57
2019-02-26T02:06:39.174Z,18.93
2019-02-26T02:09:13.343Z,19.67
2019-02-26T02:11:40.911Z,19.73
2019-02-26T02:14:10.912Z,19.60
2019-02-26T02:16:41.139Z,19.97
2019-02-26T02:19:10.351Z,20.57
2019-02-26T02:21:39.639Z,19.60
2019-02-26T02:24:12.648Z,20.10
2019-02-26T02:26:41.109Z,21.13
2019-02-26T02:29:12.600Z,20.27
2019-02-26T02:31:42.005Z,22.10
2019-02-26T02:34:11.372Z,19.53
2019-02-26T02:36:40.516Z,21.23
2019-02-26T02:39:13.033Z,20.60
2019-02-26T02:41:42.083Z,21.27
2019-02-26T02:44:14.499Z,20.77
2019-02-26T02:46:44.377Z,20.83
2019-02-26T02:49:15.799Z,21.60
2019-02-26T02:51:44.549Z,21.80
2019-02-26T02:54:15.441Z,21.07
2019-02-26T02:56:44.686Z,21.77
2019-02-26T02:59:14.545Z,21.40
2019-02-26T03:01:45.836Z,21.67
2019-02-26T03:04:19.641Z,22.53
2019-02-26T03:06:46.727Z,23.07
2019-02-26T03:09:17.756Z,22.53
2019-02-26T03:11:49.422Z,23.43
2019-02-26T03:14:18.644Z,21.47
2019-02-26T03:16:50.811Z,24.57
2019-02-26T03:19:18.913Z,21.33
2019-02-26T03:21:49.628Z,21.07
2019-02-26T03:24:19.171Z,21.73
2019-02-26T03:26:48.369Z,22.70
2019-02-26T03:29:17.627Z,21.73
2019-02-26T03:31:54.720Z,20.83
2019-02-26T03:34:24.211Z,20.40
2019-02-26T03:36:48.731Z,21.47
2019-02-26T03:39:17.964Z,22.10
2019-02-26T03:41:48.643Z,23.07
2019-02-26T03:44:18.183Z,21.50
2019-02-26T03:46:47.338Z,21.50
2019-02-26T03:49:16.586Z,21.57
2019-02-26T03:51:45.929Z,22.30
2019-02-26T03:54:15.127Z,20.00
2019-02-26T03:56:44.467Z,20.77
2019-02-26T03:59:13.715Z,20.83
2019-02-26T04:01:42.902Z,21.63
2019-02-26T04:04:12.083Z,22.13
2019-02-26T04:06:43.387Z,20.67
2019-02-26T04:09:14.495Z,21.53
2019-02-26T04:11:45.636Z,22.67
2019-02-26T04:14:15.353Z,20.70
2019-02-26T04:16:44.975Z,21.60
2019-02-26T04:19:14.125Z,22.07
2019-02-26T04:22:21.030Z,22.57
2019-02-26T04:24:52.235Z,22.47
2019-02-26T04:27:46.577Z,22.33
2019-02-26T04:31:02.983Z,21.63
2019-02-26T04:34:12.010Z,20.53
2019-02-26T04:37:26.952Z,23.33
2019-02-26T04:40:30.546Z,21.80
2019-02-26T04:43:34.136Z,21.20
2019-02-26T04:46:43.966Z,25.47
2019-02-26T04:49:13.193Z,21.20
2019-02-26T04:51:44.952Z,21.00
2019-02-26T04:54:17.554Z,21.43
2019-02-26T04:56:48.105Z,21.60
2019-02-26T04:59:18.817Z,21.90
2019-02-26T05:01:51.794Z,20.17
2019-02-26T05:04:18.962Z,20.30
2019-02-26T05:06:48.269Z,21.60
2019-02-26T05:09:17.547Z,21.53
2019-02-26T05:11:47.127Z,20.80
2019-02-26T05:14:21.013Z,21.30
2019-02-26T05:16:47.327Z,21.27
2019-02-26T05:19:18.612Z,21.37
2019-02-26T05:21:47.427Z,20.53
2019-02-26T05:24:18.013Z,20.87
2019-02-26T05:26:47.707Z,20.83
2019-02-26T05:29:17.006Z,20.97
2019-02-26T05:31:46.242Z,21.10
2019-02-26T05:34:18.127Z,20.00
2019-02-26T05:36:46.538Z,20.10
2019-02-26T05:39:20.351Z,21.17
2019-02-26T05:41:46.838Z,20.07
2019-02-26T05:44:16.107Z,20.20
2019-02-26T05:46:47.312Z,19.53
2019-02-26T05:49:19.207Z,21.17
2019-02-26T05:51:47.271Z,21.43
2019-02-26T05:54:18.606Z,19.90
2019-02-26T05:56:49.841Z,20.30
2019-02-26T05:59:21.450Z,20.17
2019-02-26T06:01:52.788Z,20.33
2019-02-26T06:04:20.849Z,21.20
2019-02-26T06:06:53.017Z,19.83
2019-02-26T06:09:23.383Z,21.53
2019-02-26T06:11:52.291Z,19.70
2019-02-26T06:14:21.517Z,19.37
2019-02-26T06:16:53.243Z,19.97
2019-02-26T06:19:42.297Z,18.90
2019-02-26T06:22:16.936Z,19.43
2019-02-26T06:24:42.979Z,18.77
2019-02-26T06:27:13.818Z,18.50
2019-02-26T06:29:43.141Z,16.60
2019-02-26T06:32:14.419Z,16.00
2019-02-26T06:34:43.702Z,16.03
2019-02-26T06:37:23.354Z,15.33
2019-02-26T06:39:54.875Z,14.57
2019-02-26T06:42:23.378Z,14.57
2019-02-26T06:44:52.682Z,14.73
2019-02-26T06:47:25.485Z,13.90
2019-02-26T06:49:52.878Z,15.10
2019-02-26T06:52:22.188Z,13.73
2019-02-26T06:54:57.215Z,13.17
2019-02-26T06:57:22.402Z,13.73
2019-02-26T06:59:55.135Z,13.13
2019-02-26T07:02:22.666Z,13.33
2019-02-26T07:04:51.983Z,13.53
2019-02-26T07:07:21.304Z,12.97
2019-02-26T07:09:50.464Z,13.20
2019-02-26T07:12:21.705Z,11.17
2019-02-26T07:14:51.375Z,12.00
2019-02-26T07:17:21.620Z,11.43
2019-02-26T07:19:53.067Z,10.90
2019-02-26T07:22:21.826Z,11.03
2019-02-26T07:24:52.067Z,12.00
2019-02-26T07:27:22.084Z,11.50
2019-02-26T07:29:52.724Z,10.90
2019-02-26T07:32:22.762Z,11.17
2019-02-26T07:34:52.934Z,12.47
2019-02-26T07:37:22.094Z,11.33
2019-02-26T07:39:51.641Z,10.87
2019-02-26T07:42:20.998Z,11.37
2019-02-26T07:44:50.199Z,11.30
2019-02-26T07:47:19.551Z,11.10
2019-02-26T07:49:48.818Z,11.40
2019-02-26T07:52:18.049Z,10.70
2019-02-26T07:54:49.380Z,10.73
2019-02-26T07:57:20.573Z,11.47
2019-02-26T07:59:50.194Z,11.07
2019-02-26T08:02:19.632Z,11.30
2019-02-26T08:04:49.035Z,10.30
2019-02-26T08:07:19.164Z,10.73
2019-02-26T08:09:49.282Z,11.03
2019-02-26T08:12:18.644Z,11.00
2019-02-26T08:14:49.973Z,10.10
2019-02-26T08:17:18.910Z,10.27
2019-02-26T08:19:49.347Z,11.07
2019-02-26T08:22:18.864Z,11.00
2019-02-26T08:24:50.335Z,12.17
2019-02-26T08:27:38.164Z,13.60
2019-02-26T08:30:12.643Z,11.97
2019-02-26T08:32:41.538Z,11.63
2019-02-26T08:35:10.951Z,13.83
2019-02-26T08:37:40.161Z,12.23
2019-02-26T08:40:11.282Z,11.60
2019-02-26T08:42:40.526Z,11.43
2019-02-26T08:45:14.958Z,12.53
2019-02-26T08:47:43.648Z,11.73
2019-02-26T08:50:14.845Z,12.60
2019-02-26T08:52:46.779Z,13.47
2019-02-26T08:55:17.762Z,16.53
2019-02-26T08:57:46.450Z,13.57
2019-02-26T09:00:17.112Z,12.67
2019-02-26T09:02:48.778Z,13.20
2019-02-26T09:05:17.284Z,13.77
2019-02-26T09:07:47.537Z,13.40
2019-02-26T09:10:18.375Z,13.90
2019-02-26T09:12:51.058Z,15.33
2019-02-26T09:15:19.478Z,14.67
2019-02-26T09:17:48.706Z,13.30
2019-02-26T09:20:17.938Z,13.67
2019-02-26T09:22:48.746Z,13.60
2019-02-26T09:25:20.392Z,14.83
2019-02-26T09:27:49.232Z,15.30
2019-02-26T09:30:19.302Z,15.47
2019-02-26T09:32:48.663Z,15.43
2019-02-26T09:35:21.735Z,17.80
2019-02-26T09:37:52.012Z,17.37
2019-02-26T09:40:23.100Z,16.27
2019-02-26T09:42:54.238Z,16.87
2019-02-26T09:45:23.684Z,16.60
2019-02-26T09:47:55.683Z,18.00
2019-02-26T09:50:24.089Z,16.77
2019-02-26T09:52:55.760Z,17.00
2019-02-26T09:55:24.189Z,16.57
2019-02-26T09:57:53.450Z,15.80
2019-02-26T10:00:27.183Z,15.17
2019-02-26T10:02:55.072Z,15.10
2019-02-26T10:05:24.367Z,15.33
2019-02-26T10:07:54.993Z,16.63
2019-02-26T10:10:26.058Z,16.60
2019-02-26T10:12:57.359Z,16.30
2019-02-26T10:15:26.530Z,16.50
2019-02-26T10:17:58.646Z,15.83
2019-02-26T10:20:29.482Z,17.00
2019-02-26T10:23:00.673Z,16.50
2019-02-26T10:25:31.946Z,15.63
2019-02-26T10:28:03.087Z,17.83
2019-02-26T10:30:33.284Z,16.00
2019-02-26T10:33:02.746Z,20.80
2019-02-26T10:35:33.552Z,16.17
2019-02-26T10:38:05.735Z,15.70
2019-02-26T10:40:37.080Z,15.90
2019-02-26T10:43:05.450Z,14.53
2019-02-26T10:45:38.612Z,16.90
2019-02-26T10:48:05.926Z,18.33
2019-02-26T10:50:37.278Z,15.47
2019-02-26T10:53:10.241Z,19.37
2019-02-26T10:55:39.332Z,17.87
2019-02-26T10:58:11.080Z,15.43
2019-02-26T11:00:39.018Z,15.50
2019-02-26T11:03:09.079Z,16.07
2019-02-26T11:05:40.599Z,15.50
2019-02-26T11:08:10.225Z,15.73
2019-02-26T11:10:42.098Z,15.07
2019-02-26T11:13:12.426Z,14.67
2019-02-26T11:15:41.317Z,15.97
2019-02-26T11:18:11.642Z,15.13
2019-02-26T11:20:41.547Z,15.30
2019-02-26T11:23:13.412Z,13.80
2019-02-26T11:25:41.719Z,15.30
2019-02-26T11:28:12.983Z,14.93
2019-02-26T11:30:43.751Z,14.13
2019-02-26T11:33:13.671Z,10.67
2019-02-26T11:35:45.904Z,10.23
2019-02-26T11:38:16.934Z,9.17
2019-02-26T11:40:45.481Z,8.80
2019-02-26T11:43:16.879Z,8.87
2019-02-26T11:45:45.633Z,9.23
2019-02-26T11:48:14.791Z,8.90
2019-02-26T11:50:44.546Z,8.27
2019-02-26T11:53:14.447Z,7.90
2019-02-26T11:55:43.671Z,8.00
2019-02-26T11:58:15.457Z,8.80
2019-02-26T12:00:50.579Z,8.67
2019-02-26T12:03:22.718Z,8.43
2019-02-26T12:05:53.408Z,8.97
2019-02-26T12:08:22.827Z,9.07
2019-02-26T12:10:57.650Z,8.80
2019-02-26T12:13:25.035Z,8.77
2019-02-26T12:15:55.425Z,9.17
2019-02-26T12:18:24.615Z,7.70
2019-02-26T12:20:53.959Z,7.43
2019-02-26T12:23:23.269Z,8.13
2019-02-26T12:25:53.610Z,7.90
2019-02-26T12:28:25.186Z,8.23
2019-02-26T12:30:54.191Z,8.10
2019-02-26T12:33:23.443Z,7.47
2019-02-26T12:35:55.512Z,6.57
2019-02-26T12:38:23.553Z,6.30
2019-02-26T12:40:53.420Z,6.30
2019-02-26T12:43:23.282Z,6.57
2019-02-26T12:45:55.245Z,6.53
2019-02-26T12:48:23.385Z,5.70
2019-02-26T12:50:55.415Z,5.33
2019-02-26T12:53:23.694Z,5.17
2019-02-26T12:55:54.301Z,5.70
2019-02-26T12:58:27.611Z,5.40
2019-02-26T13:00:55.111Z,5.00
2019-02-26T13:03:24.366Z,5.13
2019-02-26T13:05:53.603Z,4.70
2019-02-26T13:08:24.154Z,5.20
2019-02-26T13:10:56.153Z,4.50
2019-02-26T13:13:24.426Z,4.47
2019-02-26T13:15:53.691Z,4.37
2019-02-26T13:18:22.939Z,4.30
2019-02-26T13:20:57.234Z,4.10
2019-02-26T13:23:23.360Z,4.27
2019-02-26T13:25:52.621Z,4.40
2019-02-26T13:28:29.121Z,3.93
2019-02-26T13:30:53.132Z,4.13
2019-02-26T13:33:32.763Z,3.87
2019-02-26T13:36:00.957Z,3.90
2019-02-26T13:38:34.006Z,3.90
2019-02-26T13:41:19.911Z,3.53
2019-02-26T13:43:30.400Z,3.67
2019-02-26T13:45:59.626Z,3.40
2019-02-26T13:48:28.896Z,3.40
2019-02-26T13:50:58.062Z,3.33
2019-02-26T13:53:28.453Z,4.00
2019-02-26T13:55:57.769Z,4.10
2019-02-26T13:58:27.009Z,3.43
2019-02-26T14:00:56.621Z,3.53
2019-02-26T14:03:26.032Z,3.73
2019-02-26T14:05:55.271Z,3.83
2019-02-26T14:08:24.538Z,4.20
2019-02-26T14:10:53.804Z,4.20
2019-02-26T14:13:23.313Z,4.93
2019-02-26T14:15:52.503Z,4.50
2019-02-26T14:18:21.763Z,4.20
2019-02-26T14:20:51.041Z,3.90
2019-02-26T14:23:20.225Z,4.73
2019-02-26T14:25:49.625Z,4.33
2019-02-26T14:28:18.907Z,4.00
2019-02-26T14:30:48.075Z,4.37
2019-02-26T14:33:17.258Z,4.50
2019-02-26T14:35:46.467Z,3.53
2019-02-26T14:38:15.699Z,4.40
2019-02-26T14:40:44.985Z,4.27
2019-02-26T14:43:14.377Z,4.13
2019-02-26T14:45:43.637Z,4.60
2019-02-26T14:48:13.842Z,4.60
2019-02-26T14:50:43.323Z,4.73
2019-02-26T14:53:12.586Z,5.23
2019-02-26T14:55:41.789Z,5.07
2019-02-26T14:58:11.155Z,5.00
2019-02-26T15:00:40.650Z,4.57
2019-02-26T15:03:10.038Z,4.77
2019-02-26T15:05:39.351Z,4.90
2019-02-26T15:08:09.665Z,5.20
2019-02-26T15:10:39.191Z,5.47
2019-02-26T15:13:08.499Z,4.87
2019-02-26T15:15:37.727Z,5.43
2019-02-26T15:18:07.015Z,5.77
2019-02-26T15:20:36.214Z,5.50
2019-02-26T15:23:05.749Z,5.60
2019-02-26T15:25:34.976Z,5.40
2019-02-26T15:28:05.475Z,6.33
2019-02-26T15:30:34.942Z,5.70
2019-02-26T15:33:10.756Z,5.60
2019-02-26T15:35:35.210Z,5.13
2019-02-26T15:38:04.465Z,5.20
2019-02-26T15:40:33.805Z,5.87
2019-02-26T15:43:03.183Z,5.40
2019-02-26T15:45:33.071Z,5.77
2019-02-26T15:48:03.968Z,5.37
2019-02-26T15:50:33.295Z,5.00
2019-02-26T15:53:02.596Z,5.37
2019-02-26T15:55:31.923Z,5.83
2019-02-26T15:58:03.998Z,5.50
2019-02-26T16:00:32.239Z,5.50
2019-02-26T16:03:01.607Z,6.23
2019-02-26T16:05:30.865Z,6.80
2019-02-26T16:08:00.113Z,5.53
2019-02-26T16:10:29.342Z,5.40
2019-02-26T16:13:04.392Z,5.70
2019-02-26T16:15:34.856Z,6.10
2019-02-26T16:18:04.104Z,5.83
2019-02-26T16:20:33.428Z,10.33
2019-02-26T16:23:02.756Z,15.17
2019-02-26T16:25:32.102Z,6.80
2019-02-26T16:28:01.407Z,11.63
2019-02-26T16:30:30.673Z,7.63
2019-02-26T16:32:59.972Z,6.57
2019-02-26T16:35:29.274Z,6.63
2019-02-26T16:37:58.542Z,6.33
2019-02-26T16:40:31.401Z,7.30
2019-02-26T16:42:58.747Z,7.00
2019-02-26T16:45:28.054Z,6.83
2019-02-26T16:47:57.565Z,7.40
2019-02-26T16:50:26.963Z,7.47
2019-02-26T16:52:57.961Z,6.73
2019-02-26T16:55:27.201Z,6.27
2019-02-26T16:57:56.586Z,7.20
2019-02-26T17:00:25.988Z,7.97
2019-02-26T17:02:57.647Z,7.33
2019-02-26T17:05:26.415Z,8.13
2019-02-26T17:07:55.966Z,7.40
2019-02-26T17:10:29.444Z,7.60
2019-02-26T17:12:56.667Z,8.27
2019-02-26T17:15:27.579Z,7.13
2019-02-26T17:17:56.819Z,6.50
2019-02-26T17:20:26.520Z,7.10
2019-02-26T17:22:55.833Z,8.90
2019-02-26T17:25:28.480Z,9.40
2019-02-26T17:27:56.141Z,8.87
2019-02-26T17:30:25.404Z,9.10
2019-02-26T17:32:54.740Z,8.53
2019-02-26T17:35:24.101Z,9.60
2019-02-26T17:37:53.405Z,9.47
2019-02-26T17:40:22.819Z,11.33
2019-02-26T17:42:54.102Z,10.27
2019-02-26T17:45:23.192Z,10.87
2019-02-26T17:47:56.523Z,11.20
2019-02-26T17:50:26.280Z,9.50
2019-02-26T17:52:55.554Z,10.73
2019-02-26T17:55:25.204Z,13.10
2019-02-26T17:57:54.832Z,11.70
2019-02-26T18:00:24.692Z,10.37
2019-02-26T18:02:53.889Z,11.93
2019-02-26T18:05:23.080Z,11.13
2019-02-26T18:07:52.365Z,10.60
2019-02-26T18:10:21.818Z,10.50
2019-02-26T18:12:51.091Z,10.90
2019-02-26T18:15:20.888Z,12.83
2019-02-26T18:17:50.327Z,12.37
2019-02-26T18:20:19.676Z,12.73
2019-02-26T18:22:48.974Z,12.43
2019-02-26T18:25:18.468Z,13.30
2019-02-26T18:27:47.923Z,12.80
2019-02-26T18:30:19.267Z,12.43
2019-02-26T18:32:50.586Z,13.53
2019-02-26T18:35:19.545Z,12.23
2019-02-26T18:37:48.764Z,12.10
2019-02-26T18:40:18.033Z,12.30
2019-02-26T18:42:47.522Z,14.33
2019-02-26T18:45:18.967Z,13.10
2019-02-26T18:47:48.217Z,12.87
2019-02-26T18:50:17.598Z,12.10
2019-02-26T18:52:46.803Z,12.80
2019-02-26T18:55:17.572Z,13.13
2019-02-26T18:57:46.749Z,14.10
2019-02-26T19:00:21.228Z,14.87
2019-02-26T19:02:52.215Z,14.30
2019-02-26T19:05:23.617Z,14.10
2019-02-26T19:07:52.679Z,34.90
2019-02-26T19:10:21.947Z,14.67
2019-02-26T19:12:51.176Z,14.40
2019-02-26T19:15:20.766Z,16.97
2019-02-26T19:17:51.370Z,17.30
2019-02-26T19:20:22.777Z,20.87
2019-02-26T19:22:52.190Z,19.63
2019-02-26T19:25:21.531Z,16.40
2019-02-26T19:27:53.047Z,16.93
2019-02-26T19:30:21.941Z,15.53
2019-02-26T19:32:51.291Z,14.93
2019-02-26T19:35:20.576Z,15.03
2019-02-26T19:37:52.758Z,15.27
2019-02-26T19:40:24.666Z,13.73
2019-02-26T19:42:53.993Z,14.77
2019-02-26T19:45:23.234Z,20.93
2019-02-26T19:47:55.708Z,33.10
2019-02-26T19:50:23.469Z,37.97
2019-02-26T19:52:57.008Z,33.03
2019-02-26T19:55:26.512Z,13.33
2019-02-26T19:57:55.823Z,45.10
2019-02-26T20:00:25.148Z,12.40
2019-02-26T20:02:54.436Z,13.37
2019-02-26T20:05:23.696Z,12.83
2019-02-26T20:07:53.223Z,13.50
2019-02-26T20:10:22.705Z,14.37
2019-02-26T20:12:53.913Z,14.10
2019-02-26T20:15:22.991Z,15.10
2019-02-26T20:17:52.669Z,14.77
2019-02-26T20:20:22.025Z,14.80
2019-02-26T20:22:51.322Z,13.57
2019-02-26T20:25:20.619Z,14.93
2019-02-26T20:27:49.985Z,15.23
2019-02-26T20:30:19.911Z,15.10
2019-02-26T20:32:49.189Z,13.40
2019-02-26T20:35:18.576Z,14.93
2019-02-26T20:37:47.941Z,15.13
2019-02-26T20:40:18.464Z,15.77
2019-02-26T20:42:47.740Z,15.10
2019-02-26T20:45:18.759Z,15.33
2019-02-26T20:47:48.197Z,16.57
2019-02-26T20:50:19.945Z,17.37
2019-02-26T20:52:48.553Z,17.23
2019-02-26T20:55:19.983Z,16.67
2019-02-26T20:57:49.333Z,17.80
2019-02-26T21:00:19.259Z,17.37
2019-02-26T21:02:48.574Z,15.00
2019-02-26T21:05:17.852Z,16.27
2019-02-26T21:07:47.276Z,14.77
2019-02-26T21:10:16.927Z,14.93
2019-02-26T21:12:46.214Z,14.97
2019-02-26T21:15:17.205Z,16.63
2019-02-26T21:17:46.383Z,16.57
2019-02-26T21:20:15.723Z,15.90
2019-02-26T21:22:45.226Z,16.67
2019-02-26T21:25:14.528Z,16.67
2019-02-26T21:27:43.738Z,16.53
2019-02-26T21:30:15.016Z,16.10
2019-02-26T21:32:44.373Z,16.50
2019-02-26T21:35:14.195Z,15.17
2019-02-26T21:37:43.408Z,15.03
2019-02-26T21:40:15.822Z,14.77
2019-02-26T21:42:44.148Z,14.90
2019-02-26T21:45:16.168Z,14.97
2019-02-26T21:47:44.845Z,15.13
2019-02-26T21:50:14.398Z,15.00
2019-02-26T21:52:43.754Z,29.30
2019-02-26T21:55:13.078Z,20.40
2019-02-26T21:57:42.351Z,20.20
2019-02-26T22:00:13.928Z,15.40
2019-02-26T22:02:44.418Z,15.90
2019-02-26T22:05:13.974Z,15.33
2019-02-26T22:07:43.211Z,15.67
2019-02-26T22:10:13.462Z,14.00
2019-02-26T22:12:42.715Z,14.97
2019-02-26T22:15:13.596Z,14.97
2019-02-26T22:17:42.861Z,15.17
2019-02-26T22:20:22.102Z,15.43
2019-02-26T22:22:44.550Z,16.30
2019-02-26T22:25:17.103Z,16.20
2019-02-26T22:27:45.290Z,15.77
2019-02-26T22:30:15.899Z,16.70
2019-02-26T22:32:45.135Z,15.17
2019-02-26T22:35:14.523Z,15.70
2019-02-26T22:37:43.850Z,14.83
2019-02-26T22:40:13.302Z,14.97
2019-02-26T22:42:42.512Z,14.63
2019-02-26T22:45:12.118Z,14.83
2019-02-26T22:47:43.182Z,14.57
2019-02-26T22:50:12.823Z,14.70
2019-02-26T22:52:42.114Z,14.57
2019-02-26T22:55:15.952Z,15.57
2019-02-26T22:57:42.529Z,13.30
2019-02-26T23:00:55.633Z,13.77
2019-02-26T23:03:24.840Z,13.60
2019-02-26T23:05:54.178Z,14.50
2019-02-26T23:08:23.767Z,15.13
2019-02-26T23:10:57.037Z,14.07
2019-02-26T23:13:24.291Z,14.23
2019-02-26T23:15:53.592Z,13.27
2019-02-26T23:18:22.752Z,13.10
2019-02-26T23:20:52.071Z,13.30
2019-02-26T23:23:22.406Z,13.27
2019-02-26T23:25:51.570Z,13.37
2019-02-26T23:28:21.944Z,12.20
2019-02-26T23:30:51.667Z,12.53
2019-02-26T23:33:21.043Z,12.17
2019-02-26T23:35:54.907Z,12.10
2019-02-26T23:38:21.629Z,11.87
2019-02-26T23:40:50.914Z,10.97
2019-02-26T23:43:20.142Z,10.77
2019-02-26T23:45:49.458Z,11.23
2019-02-26T23:48:18.713Z,10.83
2019-02-26T23:50:48.038Z,11.37
2019-02-26T23:53:17.453Z,10.83
2019-02-26T23:55:47.414Z,10.40
2019-02-26T23:58:17.358Z,10.90
